Moffett Field, California
Current Conditions -  °F | °C
As of 5:56 PM on Saturday 22 Nov 2014 (Local Time) from KNUQ Reporting Station
Clear Clear  
Wind Chill: 60°   Ceiling: Unl
Heat Index: 60°   Visibility: 10mi
Dew Point: 54°   Wind: 6mph
Humidity: 80%   Direction: 300°WNW
Pressure: 30.16"   Gusts: NA
Location:  37.4154°N, 122.058°W
Report Text: KNUQ 230156Z 30005KT 10SM CLR 16/12 A3016 RMK AO2 SLP215 T01560122
Loading
Personal Weather Stations






























Interactive Weather Map New forecast layout! Learn more

10-Day Weather Forecast

Advertisements
Track Severe Weather on mobile